Time;durP1;ratioP1;P1;durP2;ratioP2;P2;SDS_P1;SDS_P2;PMS_P1;PMS_P2;Temp;Humidity;BMP_temperature;BMP_pressure;BME280_temperature;BME280_humidity;BME280_pressure;Samples;Min_cycle;Max_cycle;Signal;HPM_P1;HPM_P2
2022/09/28 04:37:17;;;;;;;86.20;32.42;;;;;;;13.44;100.00;98713.09;1705503;83;21736;-39
2022/09/28 04:39:45;;;;;;;77.82;33.00;;;;;;;13.44;100.00;98716.58;1707555;81;21438;-39
2022/09/28 04:42:12;;;;;;;74.62;29.90;;;;;;;13.46;100.00;98713.91;1716565;81;21031;-39
2022/09/28 04:44:43;;;;;;;75.35;30.77;;;;;;;13.46;100.00;98713.91;1720679;81;21053;-39
2022/09/28 04:47:12;;;;;;;80.95;30.40;;;;;;;13.44;100.00;98707.38;1719012;81;21514;-38
2022/09/28 04:50:00;;;;;;;73.92;29.27;;;;;;;13.42;100.00;98705.73;1692919;82;21045;-40
2022/09/28 04:52:36;;;;;;;75.28;28.30;;;;;;;13.37;100.00;98705.05;1685137;81;21034;-39
2022/09/28 04:55:04;;;;;;;71.77;28.90;;;;;;;13.33;100.00;98706.91;1726056;81;21504;-40
2022/09/28 04:57:34;;;;;;;72.90;28.40;;;;;;;13.31;100.00;98706.13;1727031;81;21067;-40
2022/09/28 05:00:01;;;;;;;83.10;30.60;;;;;;;13.28;100.00;98710.19;1732112;81;21042;-40
2022/09/28 05:02:30;;;;;;;72.35;29.37;;;;;;;13.22;100.00;98713.89;1710399;81;21376;-39
2022/09/28 05:05:15;;;;;;;79.15;29.95;;;;;;;13.26;100.00;98718.56;1717310;81;21029;-39
2022/09/28 05:07:49;;;;;;;76.33;29.55;;;;;;;13.28;100.00;98707.11;1687151;81;21014;-46
2022/09/28 05:10:17;;;;;;;76.92;29.30;;;;;;;13.29;100.00;98705.33;1714589;81;21069;-45
2022/09/28 05:12:44;;;;;;;80.05;29.72;;;;;;;13.28;100.00;98705.80;1714755;81;21612;-39
2022/09/28 05:15:11;;;;;;;75.80;31.15;;;;;;;13.28;100.00;98691.80;1716326;81;21065;-39
2022/09/28 05:17:39;;;;;;;73.47;30.40;;;;;;;13.28;100.00;98693.97;1718263;81;21770;-46
2022/09/28 05:20:12;;;;;;;94.60;32.60;;;;;;;13.29;100.00;98683.01;1714089;82;21057;-39
2022/09/28 05:22:40;;;;;;;77.17;30.95;;;;;;;13.30;100.00;98686.88;1651548;84;21635;-40
2022/09/28 05:25:08;;;;;;;84.77;31.45;;;;;;;13.31;100.00;98684.65;1706729;81;21716;-46
2022/09/28 05:27:37;;;;;;;75.97;30.10;;;;;;;13.33;100.00;98683.73;1714381;81;21074;-46
2022/09/28 05:30:11;;;;;;;75.17;30.30;;;;;;;13.36;100.00;98686.27;1717645;81;21452;-46
2022/09/28 05:32:48;;;;;;;67.65;29.02;;;;;;;13.36;100.00;98683.64;1670926;81;21037;-39
2022/09/28 05:35:20;;;;;;;70.10;27.82;;;;;;;13.35;100.00;98685.41;1712632;81;21061;-39
2022/09/28 05:37:48;;;;;;;75.25;29.60;;;;;;;13.34;100.00;98688.10;1713946;81;20996;-39
2022/09/28 05:40:15;;;;;;;79.10;28.65;;;;;;;13.38;100.00;98692.30;1713355;81;21042;-39
2022/09/28 05:42:42;;;;;;;64.20;28.20;;;;;;;13.39;100.00;98690.92;1711658;81;21601;-39
2022/09/28 05:45:10;;;;;;;80.30;29.77;;;;;;;13.42;100.00;98688.20;1709178;81;21087;-46
2022/09/28 05:47:40;;;;;;;75.95;30.95;;;;;;;13.41;100.00;98697.46;1713334;81;21024;-39
2022/09/28 05:50:10;;;;;;;76.85;30.48;;;;;;;13.39;100.00;98709.31;1716275;81;21984;-46
2022/09/28 05:52:39;;;;;;;82.92;30.05;;;;;;;13.41;100.00;98703.57;1721825;81;21352;-40
2022/09/28 05:55:07;;;;;;;75.00;29.55;;;;;;;13.46;100.00;98707.34;1686921;81;21058;-39
2022/09/28 05:57:34;;;;;;;72.27;28.73;;;;;;;13.51;100.00;98705.37;1716990;81;21006;-46
2022/09/28 06:00:09;;;;;;;79.27;30.23;;;;;;;13.54;100.00;98708.77;1714732;81;21683;-39
2022/09/28 06:02:40;;;;;;;83.70;31.20;;;;;;;13.55;100.00;98720.13;1714946;81;21079;-46
2022/09/28 06:05:09;;;;;;;80.75;30.32;;;;;;;13.56;100.00;98727.09;1715922;81;21513;-39
2022/09/28 06:07:37;;;;;;;77.03;30.80;;;;;;;13.59;100.00;98721.73;1710661;81;21061;-39
2022/09/28 06:10:07;;;;;;;76.00;31.27;;;;;;;13.65;100.00;98722.82;1713572;81;21080;-39
2022/09/28 06:12:41;;;;;;;80.20;30.80;;;;;;;13.69;100.00;98719.17;1715318;81;21008;-40
2022/09/28 06:15:14;;;;;;;77.58;31.20;;;;;;;13.75;100.00;98719.41;1683140;81;21910;-46
2022/09/28 06:17:43;;;;;;;66.82;28.45;;;;;;;13.77;100.00;98717.10;1712764;81;21025;-46
2022/09/28 06:20:26;;;;;;;74.20;28.67;;;;;;;13.78;100.00;98720.58;1706200;81;21074;-47
2022/09/28 06:22:58;;;;;;;73.52;29.05;;;;;;;13.74;100.00;98717.23;1679571;82;21722;-39
2022/09/28 06:25:28;;;;;;;82.97;33.42;;;;;;;13.75;100.00;98712.83;1713492;81;21002;-39
2022/09/28 06:28:05;;;;;;;69.37;29.15;;;;;;;13.77;100.00;98707.05;1711079;81;21013;-39
2022/09/28 06:30:33;;;;;;;72.90;29.48;;;;;;;13.79;100.00;98706.52;1712661;81;21069;-40
2022/09/28 06:33:00;;;;;;;73.95;30.88;;;;;;;13.77;100.00;98703.96;1708878;81;21045;-39
2022/09/28 06:35:29;;;;;;;86.25;31.48;;;;;;;13.74;100.00;98699.27;1706535;81;21027;-39
2022/09/28 06:37:57;;;;;;;75.95;28.65;;;;;;;13.73;100.00;98702.81;1715136;81;21625;-46
2022/09/28 06:40:23;;;;;;;78.80;32.00;;;;;;;13.74;100.00;98706.72;1729175;80;22013;-46
2022/09/28 06:42:57;;;;;;;71.12;29.40;;;;;;;13.76;100.00;98711.91;1729615;80;20973;-47
2022/09/28 06:45:33;;;;;;;76.92;31.70;;;;;;;13.80;100.00;98710.43;1711362;80;21794;-41
2022/09/28 06:48:18;;;;;;;67.97;29.12;;;;;;;13.85;100.00;98715.02;1683205;83;21389;-39
2022/09/28 06:50:45;;;;;;;69.53;28.60;;;;;;;13.90;100.00;98706.97;1711922;81;21335;-46
2022/09/28 06:53:32;;;;;;;62.95;26.77;;;;;;;13.92;100.00;98705.16;1714383;81;21141;-41
2022/09/28 06:56:08;;;;;;;;;;;;;;;13.92;100.00;98714.36;1711936;81;21410;-38
2022/09/28 06:58:42;;;;;;;65.15;26.50;;;;;;;13.95;100.00;98723.89;1692423;81;20385;-38
2022/09/28 07:01:14;;;;;;;63.85;25.60;;;;;;;13.97;100.00;98717.64;1712259;81;21493;-46
2022/09/28 07:03:49;;;;;;;61.92;26.27;;;;;;;13.99;100.00;98719.77;1705340;81;21037;-46
2022/09/28 07:06:34;;;;;;;50.75;23.77;;;;;;;14.02;100.00;98726.67;1705109;81;21471;-39
2022/09/28 07:09:19;;;;;;;54.83;23.50;;;;;;;14.00;100.00;98729.83;1708114;81;21359;-40
2022/09/28 07:11:47;;;;;;;50.20;21.70;;;;;;;13.95;100.00;98730.46;1701799;81;21592;-40
2022/09/28 07:14:16;;;;;;;48.42;22.62;;;;;;;13.92;100.00;98723.56;1705568;81;21033;-45
2022/09/28 07:17:02;;;;;;;41.83;19.73;;;;;;;13.90;100.00;98728.00;1706595;81;21061;-38
2022/09/28 07:19:56;;;;;;;42.78;19.02;;;;;;;13.89;100.00;98725.44;1724598;80;21615;-38
2022/09/28 07:22:27;;;;;;;44.30;19.87;;;;;;;13.86;100.00;98726.42;1724272;80;21536;-46
2022/09/28 07:24:54;;;;;;;45.03;20.10;;;;;;;13.88;100.00;98741.67;1728627;80;21411;-38
2022/09/28 07:27:39;;;;;;;34.10;17.40;;;;;;;13.90;100.00;98729.77;1727787;80;21489;-38
2022/09/28 07:30:11;;;;;;;39.88;18.87;;;;;;;13.93;100.00;98728.36;1729284;80;21120;-38
2022/09/28 07:33:07;;;;;;;35.65;18.30;;;;;;;13.97;100.00;98722.90;1725960;80;21583;-40
2022/09/28 07:35:40;;;;;;;37.58;15.93;;;;;;;14.06;100.00;98721.24;1724670;80;21848;-40
2022/09/28 07:38:09;;;;;;;32.20;17.15;;;;;;;14.13;100.00;98722.31;1725845;80;20989;-38
2022/09/28 07:43:21;;;;;;;32.33;17.73;;;;;;;14.18;100.00;98718.59;1705136;82;20987;-45
2022/09/28 07:45:51;;;;;;;24.63;14.70;;;;;;;14.18;100.00;98719.91;1708159;81;21054;-46
2022/09/28 07:48:20;;;;;;;20.52;11.90;;;;;;;14.19;100.00;98724.70;1702754;82;21052;-46
2022/09/28 07:50:53;;;;;;;18.85;11.70;;;;;;;14.21;100.00;98723.73;1691754;83;21519;-39
2022/09/28 07:53:25;;;;;;;19.85;11.50;;;;;;;14.25;100.00;98729.72;1696858;82;20998;-47
2022/09/28 07:56:10;;;;;;;16.95;10.53;;;;;;;14.25;100.00;98729.25;1694143;81;21151;-39
2022/09/28 07:58:42;;;;;;;16.87;11.00;;;;;;;14.20;100.00;98727.27;1697777;82;21423;-40
2022/09/28 08:01:29;;;;;;;18.90;11.40;;;;;;;14.15;100.00;98733.19;1679456;83;21957;-41
2022/09/28 08:08:33;;;;;;;18.82;11.22;;;;;;;14.06;100.00;98729.13;1696614;81;21033;-45
2022/09/28 08:11:30;;;;;;;21.40;12.03;;;;;;;14.04;100.00;98720.45;1679661;82;21130;-39
2022/09/28 08:14:36;;;;;;;21.23;12.88;;;;;;;14.15;100.00;98721.78;1691827;82;21629;-39
2022/09/28 08:17:25;;;;;;;;;;;;;;;14.22;100.00;98721.97;1676514;84;21030;-39
2022/09/28 08:22:39;;;;;;;19.27;12.28;;;;;;;14.34;100.00;98722.33;1699792;83;21035;-46
2022/09/28 08:25:19;;;;;;;21.50;11.83;;;;;;;14.38;100.00;98722.61;1699634;83;21104;-40
2022/09/28 08:27:55;;;;;;;22.27;12.25;;;;;;;14.45;100.00;98717.95;1664821;83;21514;-46
2022/09/28 08:30:26;;;;;;;13.93;10.95;;;;;;;14.54;100.00;98720.69;1661225;83;21553;-47
2022/09/28 08:33:07;;;;;;;14.55;10.40;;;;;;;14.58;100.00;98717.02;1630738;81;21466;-47
2022/09/28 08:35:44;;;;;;;13.53;10.05;;;;;;;14.58;100.00;98713.07;1695401;83;21037;-39
2022/09/28 08:38:14;;;;;;;11.45;9.40;;;;;;;14.57;100.00;98705.64;1694567;83;21085;-39
2022/09/28 08:41:28;;;;;;;10.88;8.45;;;;;;;14.60;100.00;98717.34;1716975;81;21635;-46
2022/09/28 08:44:31;;;;;;;12.53;9.10;;;;;;;14.66;100.00;98717.55;1714000;81;21063;-39
2022/09/28 08:50:23;;;;;;;13.13;9.00;;;;;;;14.85;100.00;98722.45;1702737;81;21603;-46
2022/09/28 08:53:17;;;;;;;9.38;8.13;;;;;;;14.95;100.00;98722.91;1709148;80;21004;-41
2022/09/28 08:56:11;;;;;;;9.85;8.75;;;;;;;15.02;100.00;98728.33;1716317;81;21477;-40
2022/09/28 08:58:41;;;;;;;10.95;8.23;;;;;;;15.09;100.00;98721.88;1694952;81;21015;-40
2022/09/28 09:01:08;;;;;;;9.50;7.62;;;;;;;15.15;100.00;98724.70;1704391;80;21019;-46
2022/09/28 09:03:38;;;;;;;8.95;7.12;;;;;;;15.20;100.00;98730.63;1714961;81;21009;-45
2022/09/28 09:06:30;;;;;;;8.65;7.47;;;;;;;15.23;100.00;98729.16;1705151;81;21022;-46
2022/09/28 09:09:32;;;;;;;7.87;6.78;;;;;;;15.28;100.00;98730.28;1735921;80;21066;-39
2022/09/28 09:12:20;;;;;;;17.17;6.85;;;;;;;15.33;100.00;98725.20;1736380;80;20975;-39
2022/09/28 09:15:21;;;;;;;9.68;6.62;;;;;;;15.42;100.00;98713.39;1730151;80;21126;-39
2022/09/28 09:18:21;;;;;;;10.95;7.55;;;;;;;15.48;100.00;98726.75;1730968;80;21000;-39
2022/09/28 09:20:55;;;;;;;11.00;7.58;;;;;;;15.52;100.00;98734.46;1716945;80;21606;-40
2022/09/28 09:23:56;;;;;;;8.68;7.15;;;;;;;15.54;100.00;98733.95;1721700;81;20952;-40
2022/09/28 09:26:39;;;;;;;8.80;7.45;;;;;;;15.53;100.00;98737.48;1718937;81;21091;-46
2022/09/28 09:29:28;;;;;;;7.65;6.85;;;;;;;15.48;100.00;98731.59;1715737;82;21053;-46
2022/09/28 09:32:23;;;;;;;9.03;7.40;;;;;;;15.47;100.00;98735.59;1704043;81;20980;-45
2022/09/28 09:35:17;;;;;;;8.88;6.55;;;;;;;15.50;100.00;98735.47;1701519;82;21050;-39
2022/09/28 09:38:33;;;;;;;9.15;7.62;;;;;;;15.54;100.00;98730.00;1699420;80;21719;-39
2022/09/28 09:41:48;;;;;;;11.08;6.80;;;;;;;15.53;100.00;98732.68;1722293;80;21043;-45
2022/09/28 09:44:54;;;;;;;8.88;6.60;;;;;;;15.58;100.00;98737.28;1724737;80;21106;-39
2022/09/28 09:48:55;;;;;;;7.92;6.75;;;;;;;15.61;99.61;98735.37;1726429;80;21066;-40
2022/09/28 09:55:39;;;;;;;10.18;7.60;;;;;;;15.52;100.00;98723.92;1715040;80;21507;-46
2022/09/28 09:58:36;;;;;;;8.13;6.75;;;;;;;15.52;100.00;98723.06;1718023;80;21543;-40
2022/09/28 10:05:00;;;;;;;7.55;6.33;;;;;;;15.47;100.00;98717.14;1724546;80;21648;-40
2022/09/28 10:08:12;;;;;;;9.70;6.35;;;;;;;15.50;100.00;98717.88;1682058;80;21517;-45
2022/09/28 10:10:57;;;;;;;6.75;6.10;;;;;;;15.58;100.00;98716.20;1667578;84;21150;-45
2022/09/28 10:13:23;;;;;;;11.55;6.72;;;;;;;15.70;99.30;98724.90;1712911;82;20976;-46
2022/09/28 10:15:52;;;;;;;9.25;7.72;;;;;;;15.73;97.37;98725.23;1710091;81;21015;-46
2022/09/28 10:18:26;;;;;;;6.60;6.00;;;;;;;15.66;97.31;98716.30;1713551;81;20992;-38
2022/09/28 10:21:37;;;;;;;6.72;5.47;;;;;;;15.64;97.49;98718.59;1658238;84;21055;-47
2022/09/28 10:24:56;;;;;;;7.78;6.15;;;;;;;15.61;98.08;98712.98;1692162;82;21078;-46
2022/09/28 10:27:28;;;;;;;7.37;5.95;;;;;;;15.60;98.17;98719.17;1708591;82;21039;-45
2022/09/28 10:30:16;;;;;;;10.08;6.35;;;;;;;15.59;97.30;98718.76;1653036;85;21034;-40
2022/09/28 10:32:49;;;;;;;6.87;6.17;;;;;;;15.55;96.40;98717.67;1716012;81;21020;-39
2022/09/28 10:35:23;;;;;;;8.45;6.83;;;;;;;15.49;96.83;98713.53;1714293;80;21768;-40
2022/09/28 10:38:23;;;;;;;7.28;6.42;;;;;;;15.50;97.54;98711.75;1715757;80;21422;-42
2022/09/28 10:41:18;;;;;;;8.53;5.97;;;;;;;15.56;98.39;98714.11;1722840;80;22117;-42
2022/09/28 10:44:07;;;;;;;6.92;6.20;;;;;;;15.64;98.46;98716.80;1702443;81;20969;-42
2022/09/28 10:46:45;;;;;;;8.55;6.47;;;;;;;15.73;98.09;98712.05;1688246;81;21698;-40
2022/09/28 10:49:17;;;;;;;7.95;6.30;;;;;;;15.78;97.50;98704.33;1668129;81;21604;-39
2022/09/28 10:51:48;;;;;;;6.75;6.05;;;;;;;15.80;97.48;98703.78;1708056;81;21959;-45
2022/09/28 10:54:20;;;;;;;7.47;5.70;;;;;;;15.86;97.16;98713.20;1705375;81;21517;-45
2022/09/28 10:56:49;;;;;;;10.98;6.35;;;;;;;15.90;96.17;98716.94;1701119;81;21505;-47
2022/09/28 10:59:40;;;;;;;6.67;5.90;;;;;;;15.93;95.74;98719.42;1699164;81;21032;-39
2022/09/28 11:02:34;;;;;;;7.97;5.75;;;;;;;16.01;95.37;98712.95;1701983;83;21528;-39
2022/09/28 11:05:05;;;;;;;7.15;5.75;;;;;;;16.08;94.34;98713.05;1694316;81;21439;-47
2022/09/28 11:07:37;;;;;;;6.40;5.47;;;;;;;16.13;94.44;98713.69;1712560;81;21320;-40
2022/09/28 11:10:06;;;;;;;6.95;5.67;;;;;;;16.18;94.07;98715.19;1699035;81;21583;-47
2022/09/28 11:12:41;;;;;;;10.30;6.20;;;;;;;16.25;93.58;98709.14;1678417;84;21556;-40
2022/09/28 11:15:17;;;;;;;7.50;6.25;;;;;;;16.32;93.25;98701.31;1703024;81;21060;-47
2022/09/28 11:17:44;;;;;;;5.95;5.37;;;;;;;16.35;92.35;98706.46;1700056;83;21841;-39
2022/09/28 11:20:28;;;;;;;6.55;5.45;;;;;;;16.32;91.11;98706.59;1675597;84;21076;-47
2022/09/28 11:23:16;;;;;;;7.83;6.08;;;;;;;16.26;91.19;98705.57;1688813;84;21380;-47
2022/09/28 11:25:44;;;;;;;7.40;5.62;;;;;;;16.30;91.96;98710.25;1688628;85;21399;-47
2022/09/28 11:28:17;;;;;;;6.80;5.62;;;;;;;16.42;92.05;98704.38;1683559;82;21889;-47
2022/09/28 11:30:50;;;;;;;6.08;5.08;;;;;;;16.59;92.46;98705.72;1700963;83;21044;-47
2022/09/28 11:33:37;;;;;;;8.75;5.35;;;;;;;16.77;91.46;98702.66;1691812;84;20965;-47
2022/09/28 11:36:35;;;;;;;8.50;5.22;;;;;;;16.88;89.40;98699.01;1696110;81;21032;-47
2022/09/28 11:39:18;;;;;;;6.22;5.58;;;;;;;16.92;88.61;98700.54;1701018;81;21447;-39
2022/09/28 11:42:25;;;;;;;5.37;4.87;;;;;;;16.96;88.65;98696.81;1697045;83;21564;-40
2022/09/28 11:44:58;;;;;;;5.87;5.28;;;;;;;17.01;88.77;98694.80;1707828;83;21040;-47
2022/09/28 11:47:48;;;;;;;6.45;5.83;;;;;;;17.06;88.18;98697.20;1696493;83;21497;-40
2022/09/28 11:50:46;;;;;;;6.87;5.40;;;;;;;17.09;87.71;98694.86;1703240;84;21431;-47
2022/09/28 11:53:30;;;;;;;5.92;5.35;;;;;;;17.14;86.92;98695.02;1699176;83;21076;-40
2022/09/28 11:56:16;;;;;;;6.60;5.92;;;;;;;17.16;86.83;98694.48;1690109;83;21093;-39
2022/09/28 11:58:52;;;;;;;6.55;5.22;;;;;;;17.18;86.93;98693.92;1688041;83;21011;-39
2022/09/28 12:01:26;;;;;;;12.60;5.58;;;;;;;17.20;86.85;98696.48;1693663;84;21111;-47
2022/09/28 12:04:27;;;;;;;7.10;6.40;;;;;;;17.17;86.77;98692.70;1697977;83;21001;-40
2022/09/28 12:07:06;;;;;;;6.45;5.75;;;;;;;17.12;87.48;98694.72;1693335;84;21021;-40
2022/09/28 12:09:39;;;;;;;6.95;6.20;;;;;;;17.12;87.78;98704.81;1708928;83;21090;-40
2022/09/28 12:12:34;;;;;;;6.50;5.80;;;;;;;17.11;87.90;98699.16;1715996;83;21035;-47
2022/09/28 12:15:15;;;;;;;;;;;;;;;17.10;88.23;98709.77;1720934;83;21467;-40
2022/09/28 12:17:53;;;;;;;6.75;6.05;;;;;;;17.08;88.22;98711.19;1705081;84;20434;-40
2022/09/28 12:20:28;;;;;;;7.47;5.70;;;;;;;17.05;88.08;98715.32;1692096;83;21053;-47
2022/09/28 12:23:06;;;;;;;7.15;6.30;;;;;;;17.05;88.52;98712.67;1669276;84;21537;-40
2022/09/28 12:25:40;;;;;;;10.72;5.87;;;;;;;17.02;88.76;98708.39;1692517;83;21061;-39
2022/09/28 12:28:13;;;;;;;7.03;5.83;;;;;;;17.02;88.97;98707.53;1696597;83;20988;-40
2022/09/28 12:30:40;;;;;;;7.33;5.00;;;;;;;17.05;88.87;98713.12;1687412;84;21073;-47
2022/09/28 12:33:09;;;;;;;16.62;5.80;;;;;;;17.08;87.67;98723.55;1651584;85;21001;-40
2022/09/28 12:36:12;;;;;;;7.20;5.67;;;;;;;17.04;86.93;98718.88;1687744;83;21057;-39
2022/09/28 12:39:09;;;;;;;6.28;5.50;;;;;;;17.00;87.42;98722.16;1700237;84;21038;-40
2022/09/28 12:42:11;;;;;;;7.47;6.45;;;;;;;16.95;87.38;98722.84;1687171;83;21054;-38
2022/09/28 12:45:11;;;;;;;6.10;5.50;;;;;;;16.90;87.73;98725.33;1722600;81;20978;-47
2022/09/28 12:48:14;;;;;;;6.78;6.08;;;;;;;16.83;88.76;98719.98;1722199;81;20931;-39
2022/09/28 12:50:52;;;;;;;6.20;5.60;;;;;;;16.79;88.50;98719.73;1737922;81;21565;-39
2022/09/28 12:53:30;;;;;;;8.05;6.50;;;;;;;16.81;89.31;98723.99;1722419;81;21324;-39
2022/09/28 12:56:05;;;;;;;7.47;6.40;;;;;;;16.87;90.06;98730.75;1726403;81;21499;-39
2022/09/28 12:58:58;;;;;;;7.25;6.55;;;;;;;16.99;88.69;98724.88;1729029;83;20994;-39
2022/09/28 13:01:42;;;;;;;8.73;6.67;;;;;;;17.20;89.44;98725.08;1702410;83;21047;-39
2022/09/28 13:04:47;;;;;;;9.08;5.85;;;;;;;17.45;88.22;98730.40;1720166;81;20978;-39
2022/09/28 13:07:48;;;;;;;11.53;6.90;;;;;;;17.53;87.14;98726.44;1726677;81;21575;-41
2022/09/28 13:10:34;;;;;;;6.80;5.83;;;;;;;17.59;85.97;98726.58;1751485;81;21526;-48
2022/09/28 13:13:40;;;;;;;7.53;6.45;;;;;;;17.54;84.88;98728.13;1645715;84;21033;-40
2022/09/28 13:16:16;;;;;;;9.75;5.97;;;;;;;17.46;85.31;98732.98;1688982;81;21081;-40
2022/09/28 13:18:51;;;;;;;6.95;5.90;;;;;;;17.39;85.75;98742.15;1726277;81;21516;-47
2022/09/28 13:21:44;;;;;;;7.55;6.12;;;;;;;17.28;85.58;98745.38;1725869;82;21072;-47
